createdAt,value
2023-05-23T00:01:10.187Z,61.07
2023-05-23T00:03:37.437Z,63.70
2023-05-23T00:06:06.997Z,59.90
2023-05-23T00:08:33.718Z,59.20
2023-05-23T00:11:00.347Z,55.37
2023-05-23T00:13:26.988Z,55.73
2023-05-23T00:15:53.508Z,57.70
2023-05-23T00:18:20.283Z,55.10
2023-05-23T00:20:47.043Z,56.47
2023-05-23T00:23:19.356Z,55.37
2023-05-23T00:25:52.725Z,54.47
2023-05-23T00:28:19.814Z,60.27
2023-05-23T00:30:46.370Z,60.30
2023-05-23T00:33:14.412Z,60.87
2023-05-23T00:35:41.951Z,66.97
2023-05-23T00:38:11.373Z,60.57
2023-05-23T00:40:37.895Z,60.97
2023-05-23T00:43:04.399Z,56.83
2023-05-23T00:45:31.155Z,61.10
2023-05-23T00:48:00.169Z,57.40
2023-05-23T00:50:29.843Z,56.63
2023-05-23T00:52:59.014Z,52.57
2023-05-23T00:55:25.815Z,58.00
2023-05-23T00:57:57.052Z,57.23
2023-05-23T01:00:25.295Z,57.60
2023-05-23T01:02:53.414Z,62.17
2023-05-23T01:05:22.727Z,55.97
2023-05-23T01:07:51.201Z,59.23
2023-05-23T01:10:22.135Z,61.73
2023-05-23T01:12:57.989Z,64.57
2023-05-23T01:15:32.897Z,59.23
2023-05-23T01:18:04.382Z,56.90
2023-05-23T01:20:45.185Z,65.47
2023-05-23T01:23:41.591Z,59.60
2023-05-23T01:26:27.594Z,55.80
2023-05-23T01:29:11.808Z,59.93
2023-05-23T01:31:45.135Z,55.90
2023-05-23T01:34:13.877Z,61.50
2023-05-23T01:36:42.933Z,58.20
2023-05-23T01:39:10.512Z,56.80
2023-05-23T01:41:37.366Z,58.90
2023-05-23T01:44:05.697Z,57.13
2023-05-23T01:46:34.229Z,51.77
2023-05-23T01:49:02.723Z,57.20
2023-05-23T01:51:30.548Z,55.40
2023-05-23T01:53:57.796Z,49.13
2023-05-23T01:56:24.984Z,55.30
2023-05-23T01:58:51.783Z,56.43
2023-05-23T02:01:18.793Z,56.30
2023-05-23T02:03:45.541Z,56.10
2023-05-23T02:06:12.160Z,58.17
2023-05-23T02:08:38.967Z,56.60
2023-05-23T02:11:05.596Z,53.77
2023-05-23T02:13:32.058Z,52.23
2023-05-23T02:15:58.576Z,46.70
2023-05-23T02:18:26.281Z,50.43
2023-05-23T02:20:52.812Z,56.57
2023-05-23T02:23:19.303Z,54.50
2023-05-23T02:25:45.838Z,52.40
2023-05-23T02:28:12.937Z,52.53
2023-05-23T02:30:39.848Z,48.93
2023-05-23T02:33:07.115Z,48.90
2023-05-23T02:35:34.320Z,56.67
2023-05-23T02:38:00.962Z,48.23
2023-05-23T02:40:27.447Z,48.17
2023-05-23T02:42:57.287Z,50.83
2023-05-23T02:45:24.266Z,52.57
2023-05-23T02:47:51.259Z,53.67
2023-05-23T02:50:17.791Z,55.80
2023-05-23T02:52:44.627Z,53.17
2023-05-23T02:55:11.310Z,51.47
2023-05-23T02:57:42.448Z,50.27
2023-05-23T03:00:10.262Z,52.63
2023-05-23T03:02:36.912Z,52.43
2023-05-23T03:05:04.054Z,53.00
2023-05-23T03:07:30.697Z,49.00
2023-05-23T03:09:57.336Z,46.87
2023-05-23T03:12:24.001Z,48.73
2023-05-23T03:14:50.768Z,47.63
2023-05-23T03:17:17.420Z,51.03
2023-05-23T03:19:44.053Z,54.10
2023-05-23T03:22:10.667Z,48.83
2023-05-23T03:24:37.285Z,49.60
2023-05-23T03:27:04.414Z,49.03
2023-05-23T03:29:31.077Z,51.53
2023-05-23T03:31:57.802Z,46.97
2023-05-23T03:34:26.553Z,45.90
2023-05-23T03:36:53.402Z,51.07
2023-05-23T03:39:20.253Z,51.47
2023-05-23T03:41:46.957Z,48.43
2023-05-23T03:44:14.790Z,47.43
2023-05-23T03:46:42.268Z,43.07
2023-05-23T03:49:09.263Z,43.73
2023-05-23T03:51:36.084Z,34.90
2023-05-23T03:54:03.299Z,33.73
2023-05-23T03:56:30.013Z,35.93
2023-05-23T03:58:56.690Z,32.40
2023-05-23T04:01:23.334Z,32.47
2023-05-23T04:03:50.358Z,30.53
2023-05-23T04:06:18.277Z,31.87
2023-05-23T04:08:46.150Z,29.10
2023-05-23T04:11:13.412Z,32.47
2023-05-23T04:13:42.801Z,31.57
2023-05-23T04:16:10.802Z,30.63
2023-05-23T04:18:39.424Z,34.10
2023-05-23T04:21:07.574Z,33.23
2023-05-23T04:23:38.504Z,30.87
2023-05-23T04:26:06.612Z,30.93
2023-05-23T04:28:35.682Z,28.17
2023-05-23T04:31:03.231Z,29.37
2023-05-23T04:33:34.180Z,30.27
2023-05-23T04:36:03.056Z,26.43
2023-05-23T04:38:29.737Z,31.40
2023-05-23T04:40:58.003Z,25.60
2023-05-23T04:43:54.152Z,27.67
2023-05-23T04:46:27.646Z,24.70
2023-05-23T04:49:11.150Z,26.97
2023-05-23T04:51:38.387Z,28.17
2023-05-23T04:54:31.277Z,26.77
2023-05-23T04:57:00.198Z,29.23
2023-05-23T04:59:28.351Z,30.27
2023-05-23T05:01:54.969Z,27.83
2023-05-23T05:04:23.164Z,25.43
2023-05-23T05:06:50.490Z,27.23
2023-05-23T05:09:18.040Z,26.30
2023-05-23T05:11:44.639Z,24.10
2023-05-23T05:14:11.213Z,27.67
2023-05-23T05:16:37.972Z,22.97
2023-05-23T05:19:04.633Z,25.17
2023-05-23T05:21:31.664Z,23.40
2023-05-23T05:23:59.896Z,23.93
2023-05-23T05:26:26.920Z,24.07
2023-05-23T05:28:54.105Z,21.73
2023-05-23T05:31:22.052Z,23.73
2023-05-23T05:33:49.900Z,21.63
2023-05-23T05:36:16.597Z,21.47
2023-05-23T05:38:44.802Z,20.13
2023-05-23T05:41:11.998Z,18.60
2023-05-23T05:43:42.572Z,21.03
2023-05-23T05:46:09.148Z,16.83
2023-05-23T05:48:35.683Z,17.33
2023-05-23T05:51:06.498Z,15.77
2023-05-23T05:53:34.251Z,14.73
2023-05-23T05:56:03.092Z,15.10
2023-05-23T05:58:31.359Z,16.27
2023-05-23T06:01:01.291Z,13.77
2023-05-23T06:03:28.056Z,14.97
2023-05-23T06:05:55.662Z,17.93
2023-05-23T06:08:22.332Z,16.00
2023-05-23T06:10:49.311Z,15.93
2023-05-23T06:13:16.735Z,15.00
2023-05-23T06:15:46.820Z,14.90
2023-05-23T06:18:14.027Z,14.20
2023-05-23T06:20:41.106Z,13.57
2023-05-23T06:23:12.716Z,15.00
2023-05-23T06:25:39.972Z,17.40
2023-05-23T06:28:06.552Z,13.00
2023-05-23T06:30:35.461Z,15.80
2023-05-23T06:33:02.249Z,13.53
2023-05-23T06:35:28.803Z,13.63
2023-05-23T06:37:55.336Z,14.30
2023-05-23T06:40:21.880Z,13.30
2023-05-23T06:42:50.092Z,12.23
2023-05-23T06:45:42.558Z,10.93
2023-05-23T06:48:13.539Z,11.57
2023-05-23T06:50:41.053Z,11.13
2023-05-23T06:53:08.851Z,10.33
2023-05-23T06:55:35.422Z,10.77
2023-05-23T06:58:04.291Z,11.00
2023-05-23T07:00:31.929Z,8.97
2023-05-23T07:03:09.090Z,8.67
2023-05-23T07:05:39.309Z,8.33
2023-05-23T07:08:11.445Z,7.17
2023-05-23T07:10:41.690Z,7.20
2023-05-23T07:13:21.740Z,6.30
2023-05-23T07:15:48.342Z,6.67
2023-05-23T07:18:14.957Z,7.83
2023-05-23T07:20:42.120Z,6.27
2023-05-23T07:23:16.733Z,6.77
2023-05-23T07:26:00.633Z,7.20
2023-05-23T07:28:34.403Z,6.77
2023-05-23T07:31:01.421Z,6.37
2023-05-23T07:33:29.044Z,5.87
2023-05-23T07:36:00.815Z,6.30
2023-05-23T07:38:27.338Z,6.13
2023-05-23T07:41:03.178Z,6.70
2023-05-23T07:43:37.202Z,6.63
2023-05-23T07:46:03.884Z,6.50
2023-05-23T07:48:30.541Z,7.33
2023-05-23T07:50:57.615Z,6.07
2023-05-23T07:53:24.402Z,5.83
2023-05-23T07:55:52.195Z,7.23
2023-05-23T07:58:20.175Z,6.07
2023-05-23T08:00:47.876Z,6.00
2023-05-23T08:03:32.455Z,6.80
2023-05-23T08:06:07.501Z,6.20
2023-05-23T08:08:34.406Z,6.33
2023-05-23T08:11:01.024Z,6.43
2023-05-23T08:13:34.778Z,6.30
2023-05-23T08:16:19.929Z,6.43
2023-05-23T08:18:47.031Z,6.17
2023-05-23T08:21:13.584Z,5.93
2023-05-23T08:23:45.853Z,7.00
2023-05-23T08:26:15.911Z,6.00
2023-05-23T08:28:43.215Z,6.67
2023-05-23T08:31:09.714Z,6.47
2023-05-23T08:33:36.299Z,6.97
2023-05-23T08:36:02.845Z,7.40
2023-05-23T08:38:29.584Z,6.63
2023-05-23T08:41:18.479Z,6.67
2023-05-23T08:43:46.297Z,6.50
2023-05-23T08:46:18.831Z,6.47
2023-05-23T08:48:52.164Z,7.73
2023-05-23T08:51:21.649Z,6.50
2023-05-23T08:53:52.898Z,6.60
2023-05-23T08:56:23.588Z,6.43
2023-05-23T08:58:53.122Z,6.10
2023-05-23T09:01:23.491Z,5.20
2023-05-23T09:03:53.352Z,5.40
2023-05-23T09:06:35.438Z,5.23
2023-05-23T09:09:02.091Z,5.37
2023-05-23T09:11:29.089Z,5.30
2023-05-23T09:13:57.796Z,5.03
2023-05-23T09:16:24.480Z,6.93
2023-05-23T09:18:55.790Z,4.83
2023-05-23T09:21:24.621Z,4.47
2023-05-23T09:24:00.675Z,4.77
2023-05-23T09:26:28.329Z,4.83
2023-05-23T09:28:59.382Z,6.53
2023-05-23T09:31:32.495Z,4.77
2023-05-23T09:34:01.916Z,4.77
2023-05-23T09:36:30.498Z,5.00
2023-05-23T09:38:57.205Z,5.13
2023-05-23T09:41:25.133Z,5.30
2023-05-23T09:43:54.086Z,4.80
2023-05-23T09:46:21.629Z,3.97
2023-05-23T09:48:51.726Z,5.10
2023-05-23T09:51:23.260Z,4.70
2023-05-23T09:53:51.104Z,5.03
2023-05-23T09:56:18.145Z,5.20
2023-05-23T09:58:49.386Z,4.40
2023-05-23T10:01:16.364Z,5.10
2023-05-23T10:03:50.408Z,4.37
2023-05-23T10:06:24.151Z,5.10
2023-05-23T10:09:05.078Z,4.83
2023-05-23T10:11:34.755Z,5.40
2023-05-23T10:14:04.970Z,5.30
2023-05-23T10:16:48.240Z,4.83
2023-05-23T10:19:20.689Z,5.13
2023-05-23T10:21:55.185Z,6.27
2023-05-23T10:24:22.462Z,5.30
2023-05-23T10:26:49.193Z,5.43
2023-05-23T10:29:15.813Z,5.53
2023-05-23T10:31:43.518Z,5.40
2023-05-23T10:34:28.778Z,7.07
2023-05-23T10:37:03.037Z,5.37
2023-05-23T10:40:00.326Z,5.83
2023-05-23T10:42:49.890Z,6.63
2023-05-23T10:45:24.285Z,6.33
2023-05-23T10:47:53.317Z,6.23
2023-05-23T10:50:34.122Z,6.63
2023-05-23T10:53:05.703Z,8.93
2023-05-23T10:55:34.711Z,7.10
2023-05-23T10:58:16.106Z,7.37
2023-05-23T11:01:21.380Z,7.70
2023-05-23T11:03:49.308Z,6.77
2023-05-23T11:06:35.484Z,7.77
2023-05-23T11:09:07.028Z,6.63
2023-05-23T11:11:53.120Z,7.00
2023-05-23T11:14:40.737Z,7.40
2023-05-23T11:17:13.276Z,7.23
2023-05-23T11:19:40.407Z,7.40
2023-05-23T11:22:10.049Z,7.40
2023-05-23T11:24:55.932Z,7.67
2023-05-23T11:27:34.544Z,7.50
2023-05-23T11:30:13.300Z,9.80
2023-05-23T11:32:40.152Z,8.73
2023-05-23T11:35:11.005Z,7.63
2023-05-23T11:37:40.862Z,7.23
2023-05-23T11:40:27.130Z,10.23
2023-05-23T11:42:54.399Z,8.73
2023-05-23T11:45:22.662Z,9.23
2023-05-23T11:47:52.083Z,7.40
2023-05-23T11:50:20.444Z,9.20
2023-05-23T11:52:51.511Z,10.17
2023-05-23T11:55:19.692Z,9.93
2023-05-23T11:57:46.231Z,10.90
2023-05-23T12:00:13.997Z,8.53
2023-05-23T12:02:44.734Z,8.73
2023-05-23T12:05:13.870Z,7.27
2023-05-23T12:07:42.010Z,9.43
2023-05-23T12:10:12.111Z,8.07
2023-05-23T12:12:38.846Z,9.47
2023-05-23T12:15:05.791Z,7.87
2023-05-23T12:17:33.515Z,10.40
2023-05-23T12:20:00.473Z,9.73
2023-05-23T12:22:28.230Z,8.60
2023-05-23T12:24:56.258Z,9.20
2023-05-23T12:27:30.542Z,9.33
2023-05-23T12:30:09.547Z,11.33
2023-05-23T12:32:43.504Z,10.87
2023-05-23T12:35:13.155Z,10.33
2023-05-23T12:37:42.879Z,10.50
2023-05-23T12:40:17.806Z,9.37
2023-05-23T12:42:53.793Z,9.90
2023-05-23T12:45:30.762Z,10.10
2023-05-23T12:47:57.490Z,9.27
2023-05-23T12:50:24.168Z,9.30
2023-05-23T12:52:50.784Z,9.00
2023-05-23T12:55:17.551Z,9.10
2023-05-23T12:57:44.364Z,10.27
2023-05-23T13:00:11.769Z,9.30
2023-05-23T13:02:39.380Z,8.67
2023-05-23T13:05:06.336Z,8.43
2023-05-23T13:07:32.976Z,8.37
2023-05-23T13:09:59.720Z,10.80
2023-05-23T13:12:26.301Z,9.37
2023-05-23T13:14:52.976Z,9.67
2023-05-23T13:17:19.529Z,9.57
2023-05-23T13:19:46.397Z,9.33
2023-05-23T13:22:13.247Z,10.07
2023-05-23T13:24:40.739Z,11.20
2023-05-23T13:27:07.640Z,10.33
2023-05-23T13:29:34.517Z,9.50
2023-05-23T13:32:01.391Z,10.30
2023-05-23T13:34:28.696Z,10.03
2023-05-23T13:36:55.674Z,11.33
2023-05-23T13:39:22.821Z,10.33
2023-05-23T13:41:51.478Z,10.67
2023-05-23T13:44:18.106Z,10.73
2023-05-23T13:46:44.756Z,12.37
2023-05-23T13:49:11.347Z,9.87
2023-05-23T13:51:38.160Z,11.83
2023-05-23T13:54:06.038Z,11.53
2023-05-23T13:56:33.598Z,11.07
2023-05-23T13:59:00.493Z,11.87
2023-05-23T14:01:27.276Z,11.40
2023-05-23T14:03:54.372Z,10.80
2023-05-23T14:06:21.324Z,9.93
2023-05-23T14:08:47.857Z,10.67
2023-05-23T14:11:14.454Z,9.53
2023-05-23T14:13:40.974Z,10.47
2023-05-23T14:16:07.549Z,10.00
2023-05-23T14:18:34.120Z,10.43
2023-05-23T14:21:00.641Z,11.73
2023-05-23T14:23:27.134Z,11.80
2023-05-23T14:25:53.666Z,10.43
2023-05-23T14:28:20.265Z,10.70
2023-05-23T14:30:46.787Z,10.37
2023-05-23T14:33:13.360Z,10.33
2023-05-23T14:35:40.131Z,10.63
2023-05-23T14:38:06.913Z,13.93
2023-05-23T14:40:33.430Z,13.97
2023-05-23T14:42:59.979Z,10.97
2023-05-23T14:45:26.607Z,11.87
2023-05-23T14:47:53.191Z,12.17
2023-05-23T14:50:19.747Z,12.43
2023-05-23T14:52:46.316Z,9.23
2023-05-23T14:55:12.905Z,13.33
2023-05-23T14:57:39.541Z,9.93
2023-05-23T15:00:06.708Z,12.00
2023-05-23T15:02:33.389Z,11.30
2023-05-23T15:05:00.048Z,9.23
2023-05-23T15:07:27.058Z,10.87
2023-05-23T15:09:53.677Z,10.53
2023-05-23T15:12:20.909Z,6.97
2023-05-23T15:14:47.579Z,7.33
2023-05-23T15:17:19.814Z,7.10
2023-05-23T15:19:46.502Z,7.70
2023-05-23T15:22:29.851Z,6.17
2023-05-23T15:25:00.651Z,7.17
2023-05-23T15:27:27.191Z,8.50
2023-05-23T15:29:53.709Z,6.60
2023-05-23T15:32:20.439Z,8.27
2023-05-23T15:34:47.117Z,9.17
2023-05-23T15:37:13.625Z,7.77
2023-05-23T15:39:40.295Z,10.73
2023-05-23T15:42:06.974Z,11.00
2023-05-23T15:44:33.543Z,12.23
2023-05-23T15:47:00.070Z,12.43
2023-05-23T15:49:27.336Z,11.90
2023-05-23T15:51:55.173Z,12.67
2023-05-23T15:54:22.304Z,11.30
2023-05-23T15:56:48.936Z,12.83
2023-05-23T15:59:15.471Z,12.10
2023-05-23T16:01:42.118Z,11.53
2023-05-23T16:04:08.784Z,14.27
2023-05-23T16:06:36.560Z,11.20
2023-05-23T16:09:03.558Z,12.67
2023-05-23T16:11:30.275Z,13.17
2023-05-23T16:13:56.810Z,13.17
2023-05-23T16:16:23.401Z,10.57
2023-05-23T16:18:50.024Z,12.77
2023-05-23T16:21:20.422Z,13.93
2023-05-23T16:23:48.466Z,11.87
2023-05-23T16:26:16.174Z,12.67
2023-05-23T16:28:43.604Z,11.50
2023-05-23T16:31:14.695Z,11.63
2023-05-23T16:33:41.370Z,10.50
2023-05-23T16:36:08.169Z,14.30
2023-05-23T16:38:34.691Z,11.83
2023-05-23T16:41:01.535Z,11.53
2023-05-23T16:43:28.211Z,10.40
2023-05-23T16:45:54.726Z,12.07
2023-05-23T16:48:22.117Z,10.60
2023-05-23T16:50:48.689Z,15.53
2023-05-23T16:53:15.221Z,13.00
2023-05-23T16:55:41.891Z,13.77
2023-05-23T16:58:08.805Z,14.67
2023-05-23T17:00:36.333Z,10.17
2023-05-23T17:03:02.933Z,10.13
2023-05-23T17:05:29.472Z,13.93
2023-05-23T17:07:56.150Z,13.37
2023-05-23T17:10:22.783Z,12.13
2023-05-23T17:12:49.354Z,11.00
2023-05-23T17:15:15.906Z,10.47
2023-05-23T17:17:42.589Z,12.73
2023-05-23T17:20:10.008Z,11.97
2023-05-23T17:22:40.518Z,11.30
2023-05-23T17:25:07.469Z,12.40
2023-05-23T17:27:33.997Z,11.73
2023-05-23T17:30:04.354Z,11.13
2023-05-23T17:32:30.912Z,12.40
2023-05-23T17:34:57.438Z,14.27
2023-05-23T17:37:25.806Z,10.57
2023-05-23T17:39:53.670Z,11.03
2023-05-23T17:42:21.852Z,10.87
2023-05-23T17:44:48.352Z,10.97
2023-05-23T17:47:14.899Z,11.20
2023-05-23T17:49:41.804Z,10.77
2023-05-23T17:52:09.998Z,10.23
2023-05-23T17:54:37.700Z,11.47
2023-05-23T17:57:05.154Z,13.00
2023-05-23T17:59:32.825Z,10.63
2023-05-23T18:02:00.158Z,11.57
2023-05-23T18:04:26.746Z,12.57
2023-05-23T18:06:53.331Z,10.17
2023-05-23T18:09:19.918Z,11.87
2023-05-23T18:11:46.506Z,11.10
2023-05-23T18:14:13.020Z,10.67
2023-05-23T18:16:39.612Z,10.87
2023-05-23T18:19:06.434Z,12.23
2023-05-23T18:21:34.661Z,13.13
2023-05-23T18:24:02.709Z,11.67
2023-05-23T18:26:29.382Z,11.97
2023-05-23T18:28:56.045Z,13.13
2023-05-23T18:31:22.585Z,11.30
2023-05-23T18:33:49.141Z,13.27
2023-05-23T18:36:15.752Z,11.77
2023-05-23T18:38:42.374Z,11.03
2023-05-23T18:41:12.565Z,14.10
2023-05-23T18:43:41.227Z,15.53
2023-05-23T18:46:07.829Z,11.80
2023-05-23T18:48:35.910Z,13.57
2023-05-23T18:51:02.767Z,14.00
2023-05-23T18:53:29.342Z,15.70
2023-05-23T18:55:55.948Z,15.90
2023-05-23T18:58:22.479Z,14.20
2023-05-23T19:00:49.043Z,14.37
2023-05-23T19:03:16.772Z,15.67
2023-05-23T19:05:43.503Z,19.43
2023-05-23T19:08:10.046Z,15.97
2023-05-23T19:10:36.692Z,18.97
2023-05-23T19:13:03.826Z,20.07
2023-05-23T19:15:30.398Z,16.87
2023-05-23T19:17:57.000Z,18.70
2023-05-23T19:20:23.553Z,18.47
2023-05-23T19:22:52.346Z,18.23
2023-05-23T19:25:20.347Z,19.37
2023-05-23T19:27:46.875Z,20.17
2023-05-23T19:30:13.489Z,20.33
2023-05-23T19:32:40.166Z,18.20
2023-05-23T19:35:08.195Z,16.90
2023-05-23T19:37:34.988Z,19.10
2023-05-23T19:40:01.841Z,18.50
2023-05-23T19:42:28.480Z,21.13
2023-05-23T19:44:55.019Z,17.87
2023-05-23T19:47:21.803Z,19.70
2023-05-23T19:49:48.431Z,20.07
2023-05-23T19:52:14.933Z,19.40
2023-05-23T19:54:41.845Z,20.10
2023-05-23T19:57:08.706Z,20.57
2023-05-23T19:59:35.356Z,17.97
2023-05-23T20:02:01.995Z,19.97
2023-05-23T20:04:28.597Z,20.93
2023-05-23T20:06:56.032Z,18.00
2023-05-23T20:09:22.963Z,20.30
2023-05-23T20:11:49.473Z,20.13
2023-05-23T20:14:16.063Z,21.30
2023-05-23T20:16:42.667Z,19.03
2023-05-23T20:19:09.966Z,20.43
2023-05-23T20:21:36.709Z,23.73
2023-05-23T20:24:03.363Z,19.23
2023-05-23T20:26:29.906Z,21.07
2023-05-23T20:28:56.572Z,23.27
2023-05-23T20:31:23.150Z,20.63
2023-05-23T20:33:49.849Z,19.50
2023-05-23T20:36:19.578Z,20.53
2023-05-23T20:38:46.718Z,22.80
2023-05-23T20:41:14.209Z,19.47
2023-05-23T20:43:40.885Z,22.73
2023-05-23T20:46:09.848Z,19.63
2023-05-23T20:48:36.412Z,22.40
2023-05-23T20:51:05.631Z,20.77
2023-05-23T20:53:32.221Z,21.73
2023-05-23T20:55:58.920Z,21.60
2023-05-23T20:58:25.829Z,26.43
2023-05-23T21:00:52.898Z,20.40
2023-05-23T21:03:19.798Z,20.70
2023-05-23T21:05:46.332Z,25.67
2023-05-23T21:08:12.850Z,20.97
2023-05-23T21:10:39.547Z,22.57
2023-05-23T21:13:06.750Z,23.40
2023-05-23T21:15:33.928Z,23.67
2023-05-23T21:18:00.499Z,26.07
2023-05-23T21:20:28.904Z,27.63
2023-05-23T21:22:55.644Z,29.97
2023-05-23T21:25:22.154Z,27.07
2023-05-23T21:27:48.726Z,28.73
2023-05-23T21:30:15.523Z,29.47
2023-05-23T21:32:43.494Z,30.90
2023-05-23T21:35:10.370Z,27.17
2023-05-23T21:37:36.869Z,27.77
2023-05-23T21:40:03.689Z,27.77
2023-05-23T21:42:31.010Z,26.77
2023-05-23T21:44:57.573Z,23.87
2023-05-23T21:47:25.129Z,25.67
2023-05-23T21:49:51.763Z,26.60
2023-05-23T21:52:18.401Z,26.67
2023-05-23T21:54:46.814Z,26.50
2023-05-23T21:57:13.374Z,26.20
2023-05-23T21:59:39.885Z,22.90
2023-05-23T22:02:06.464Z,22.03
2023-05-23T22:04:33.591Z,24.30
2023-05-23T22:07:00.467Z,21.87
2023-05-23T22:09:26.957Z,26.40
2023-05-23T22:11:53.631Z,26.27
2023-05-23T22:14:20.122Z,24.97
2023-05-23T22:16:46.869Z,23.63
2023-05-23T22:19:17.849Z,24.23
2023-05-23T22:21:44.436Z,23.37
2023-05-23T22:24:11.080Z,23.47
2023-05-23T22:26:39.134Z,25.53
2023-05-23T22:29:06.903Z,24.07
2023-05-23T22:31:33.527Z,22.10
2023-05-23T22:34:00.076Z,24.50
2023-05-23T22:36:26.780Z,22.27
2023-05-23T22:38:53.262Z,22.70
2023-05-23T22:41:19.890Z,24.20
2023-05-23T22:43:46.778Z,25.57
2023-05-23T22:46:13.476Z,28.50
2023-05-23T22:48:40.015Z,23.93
2023-05-23T22:51:07.887Z,26.23
2023-05-23T22:53:34.513Z,24.33
2023-05-23T22:56:00.985Z,26.23
2023-05-23T22:58:27.673Z,23.10
2023-05-23T23:00:54.164Z,23.40
2023-05-23T23:03:20.845Z,24.03
2023-05-23T23:05:47.576Z,21.83
2023-05-23T23:08:16.004Z,23.33
2023-05-23T23:10:43.903Z,24.13
2023-05-23T23:13:13.494Z,23.97
2023-05-23T23:15:40.506Z,25.77
2023-05-23T23:18:07.699Z,22.83
2023-05-23T23:20:34.501Z,24.43
2023-05-23T23:23:01.719Z,26.90
2023-05-23T23:25:28.291Z,20.83
2023-05-23T23:27:54.777Z,23.17
2023-05-23T23:30:21.430Z,22.53
2023-05-23T23:32:48.021Z,24.10
2023-05-23T23:35:14.566Z,22.13
2023-05-23T23:37:41.260Z,22.57
2023-05-23T23:40:08.659Z,23.33
2023-05-23T23:42:35.330Z,21.37
2023-05-23T23:45:01.960Z,20.03
2023-05-23T23:47:28.538Z,22.70
2023-05-23T23:49:55.098Z,24.03
2023-05-23T23:52:21.590Z,25.07
2023-05-23T23:54:48.120Z,20.33
2023-05-23T23:57:14.724Z,21.37
2023-05-23T23:59:41.743Z,23.33
